< < Back
Terminal Aerodrome Forecast


Current Version              Previous Versions:   1  2  3  4  5  6  7  8  9  

Terminal Aerodrome Forecast

316
FTUS42 KTAE 282300
TAFABY
TAF
KABY 282320Z 2900/2924 VRB06KT P6SM SCT020 SCT110
     FM290300 30006KT P6SM SCT020
     FM291400 35009KT P6SM SKC=

Latest METAR

391
SAUS70 KWBC 290500 RRG
MTRABY
METAR KABY 290453Z 00000KT 10SM CLR 23/21 A2995 RMK AO2 SLP138 T02330211
403610233


USA.gov is the U.S. government's official web portal to all federal, state and local government web resources and services.